Time;durP1;ratioP1;P1;durP2;ratioP2;P2;SDS_P1;SDS_P2;PMS_P1;PMS_P2;Temp;Humidity;BMP_temperature;BMP_pressure;BME280_temperature;BME280_humidity;BME280_pressure;Samples;Min_cycle;Max_cycle;Signal;HPM_P1;HPM_P2
2022/12/22 03:27:31;;;;;;;20.23;13.60;;;13.10;99.90;;;;;;4842584;29;20049;-73
2022/12/22 03:29:57;;;;;;;20.33;13.88;;;13.90;99.90;;;;;;4854631;29;20497;-73
2022/12/22 03:32:23;;;;;;;19.40;13.27;;;13.20;99.90;;;;;;4855233;29;20053;-73
2022/12/22 03:34:48;;;;;;;20.05;13.27;;;14.10;99.90;;;;;;4852412;29;20443;-73
2022/12/22 03:37:14;;;;;;;19.92;13.98;;;13.30;99.90;;;;;;4854457;29;20045;-72
2022/12/22 03:39:40;;;;;;;15.98;11.23;;;13.10;99.90;;;;;;4824264;29;20495;-72
2022/12/22 03:47:34;;;;;;;13.10;9.02;;;14.10;99.90;;;;;;4854213;29;20124;-73
2022/12/22 03:49:59;;;;;;;12.98;8.32;;;13.10;99.90;;;;;;4838332;29;20222;-73
2022/12/22 03:52:25;;;;;;;13.98;8.88;;;14.00;99.90;;;;;;4840473;29;20046;-72
2022/12/22 03:54:51;;;;;;;10.00;7.40;;;14.20;99.90;;;;;;4857617;29;20048;-73
2022/12/22 03:57:16;;;;;;;10.75;7.53;;;13.70;99.90;;;;;;4854444;29;20041;-73
2022/12/22 03:59:42;;;;;;;9.77;7.00;;;13.30;99.90;;;;;;4856493;29;20049;-73
2022/12/22 04:02:08;;;;;;;9.00;6.38;;;14.10;99.90;;;;;;4855434;29;20049;-73
2022/12/22 04:04:33;;;;;;;10.40;6.97;;;14.20;99.90;;;;;;4854193;29;20045;-73
2022/12/22 04:06:59;;;;;;;12.65;8.30;;;13.20;99.90;;;;;;4824390;29;20058;-73
2022/12/22 04:09:26;;;;;;;12.70;7.25;;;13.40;99.90;;;;;;4838618;29;20049;-74
2022/12/22 04:14:36;;;;;;;22.60;12.20;;;13.20;99.90;;;;;;4857189;29;20049;-74
2022/12/22 04:17:03;;;;;;;23.85;14.15;;;13.40;99.90;;;;;;4856481;29;20049;-74
2022/12/22 04:19:29;;;;;;;32.20;18.27;;;13.20;99.90;;;;;;4858154;29;20059;-74
2022/12/22 04:21:55;;;;;;;29.25;16.98;;;14.10;99.90;;;;;;4857045;29;20057;-74
2022/12/22 04:24:21;;;;;;;23.67;14.20;;;13.40;99.90;;;;;;4858771;29;20046;-74
2022/12/22 04:26:47;;;;;;;20.23;12.25;;;14.30;99.90;;;;;;4858548;29;20041;-74
2022/12/22 04:29:13;;;;;;;17.40;10.40;;;14.40;99.90;;;;;;4844479;29;20052;-74
2022/12/22 04:31:38;;;;;;;19.38;11.43;;;14.30;99.90;;;;;;4859572;29;20137;-74
2022/12/22 04:34:04;;;;;;;15.02;9.27;;;14.40;99.90;;;;;;4859302;29;20057;-74
2022/12/22 04:36:30;;;;;;;20.38;11.15;;;13.40;99.90;;;;;;4858801;29;20045;-74
2022/12/22 04:38:55;;;;;;;22.10;12.00;;;14.40;99.90;;;;;;4854733;29;20141;-73
2022/12/22 04:41:21;;;;;;;18.30;10.65;;;13.90;99.90;;;;;;4825914;29;20405;-73
2022/12/22 04:43:47;;;;;;;25.88;15.02;;;13.20;99.90;;;;;;4854446;29;20129;-73
2022/12/22 04:46:12;;;;;;;20.35;12.15;;;14.20;99.90;;;;;;4856221;29;20049;-73
2022/12/22 04:48:38;;;;;;;18.70;11.70;;;13.50;99.90;;;;;;4856942;29;20069;-73
2022/12/22 04:51:04;;;;;;;27.15;15.98;;;14.20;99.90;;;;;;4840417;29;20168;-73
2022/12/22 04:53:30;;;;;;;29.38;16.80;;;14.40;99.90;;;;;;4855403;29;20044;-74
2022/12/22 04:56:00;;;;;;;;;;;14.20;99.90;;;;;;4856204;29;20041;-74
2022/12/22 04:58:26;;;;;;;29.85;16.55;;;14.10;99.90;;;;;;4856384;29;19931;-74
2022/12/22 05:00:52;;;;;;;;;;;14.00;99.90;;;;;;4856446;29;21260;-73
2022/12/22 05:03:18;;;;;;;29.90;16.92;;;14.40;99.90;;;;;;4853763;29;19924;-74
2022/12/22 05:05:43;;;;;;;29.83;17.17;;;13.60;99.90;;;;;;4857037;29;20486;-74
2022/12/22 05:08:09;;;;;;;28.70;16.73;;;14.40;99.90;;;;;;4855903;29;20167;-74
2022/12/22 05:10:35;;;;;;;29.00;16.20;;;14.20;99.90;;;;;;4869334;29;20050;-74
2022/12/22 05:13:01;;;;;;;29.15;15.95;;;14.10;99.90;;;;;;4839924;29;20458;-74
2022/12/22 05:15:29;;;;;;;27.13;15.07;;;13.30;99.90;;;;;;4824411;29;20049;-74
2022/12/22 05:17:56;;;;;;;25.05;14.52;;;13.30;99.90;;;;;;4855366;29;20060;-74
2022/12/22 05:20:22;;;;;;;26.70;14.23;;;14.30;99.90;;;;;;4854406;29;20053;-72
2022/12/22 05:22:48;;;;;;;31.60;17.25;;;13.60;99.90;;;;;;4839031;29;20049;-71
2022/12/22 05:25:15;;;;;;;33.08;16.85;;;13.40;99.90;;;;;;4856572;29;20172;-72
2022/12/22 05:27:45;;;;;;;32.78;16.58;;;13.20;99.90;;;;;;4855643;29;20093;-72
2022/12/22 05:30:12;;;;;;;31.33;16.77;;;14.20;99.90;;;;;;4854254;29;20053;-72
2022/12/22 05:32:38;;;;;;;33.00;18.20;;;13.30;99.90;;;;;;4853084;29;20113;-72
2022/12/22 05:35:04;;;;;;;30.35;16.50;;;14.20;99.90;;;;;;4855357;29;20587;-72
2022/12/22 05:37:30;;;;;;;23.30;13.80;;;14.00;99.90;;;;;;4839393;29;20153;-72
2022/12/22 05:39:56;;;;;;;22.92;12.85;;;13.30;99.90;;;;;;4838919;29;20120;-71
2022/12/22 05:42:34;;;;;;;21.23;12.10;;;13.40;99.90;;;;;;4853891;29;20049;-71
2022/12/22 05:45:08;;;;;;;18.92;10.52;;;13.20;99.90;;;;;;4855504;29;20052;-72
2022/12/22 05:47:35;;;;;;;14.57;8.60;;;13.70;99.90;;;;;;4855113;29;20045;-71
2022/12/22 05:50:00;;;;;;;18.30;10.73;;;14.00;99.90;;;;;;4842407;29;20042;-71
2022/12/22 05:52:26;;;;;;;17.75;10.13;;;13.90;99.90;;;;;;4853666;29;20042;-70
2022/12/22 05:54:52;;;;;;;22.80;11.80;;;14.00;99.90;;;;;;4839363;29;20120;-71
2022/12/22 05:57:18;;;;;;;22.13;12.10;;;13.60;99.90;;;;;;4839170;29;20112;-70
2022/12/22 05:59:44;;;;;;;19.60;10.85;;;14.00;99.90;;;;;;4853309;29;20037;-71
2022/12/22 06:02:09;;;;;;;23.33;11.82;;;14.00;99.90;;;;;;4853780;29;20081;-72
2022/12/22 06:04:35;;;;;;;20.05;11.55;;;13.60;99.90;;;;;;4850948;29;20042;-72
2022/12/22 06:07:00;;;;;;;17.75;10.15;;;13.80;99.90;;;;;;4854182;29;20394;-71
2022/12/22 06:09:26;;;;;;;16.60;9.35;;;13.90;99.90;;;;;;4854250;29;20053;-72
2022/12/22 06:11:52;;;;;;;15.20;8.88;;;13.30;99.90;;;;;;4839314;29;20077;-71
2022/12/22 06:14:17;;;;;;;13.25;7.72;;;13.50;99.90;;;;;;4854584;29;20371;-72
2022/12/22 06:16:43;;;;;;;12.95;7.25;;;13.30;99.90;;;;;;4838195;29;20099;-71
2022/12/22 06:19:09;;;;;;;13.05;8.07;;;13.20;99.90;;;;;;4854271;29;20105;-71
2022/12/22 06:21:34;;;;;;;12.65;7.30;;;12.70;99.90;;;;;;4854202;29;20045;-70
2022/12/22 06:24:00;;;;;;;10.43;6.20;;;12.70;99.90;;;;;;4839467;29;20089;-70
2022/12/22 06:26:26;;;;;;;10.57;6.03;;;12.60;99.90;;;;;;4854033;29;20459;-68
2022/12/22 06:28:52;;;;;;;10.00;6.20;;;12.50;99.90;;;;;;4854244;29;20066;-69
2022/12/22 06:31:17;;;;;;;8.82;5.25;;;13.10;99.90;;;;;;4852633;29;20046;-69
2022/12/22 06:33:44;;;;;;;6.90;4.43;;;12.40;99.90;;;;;;4853984;29;20140;-69
2022/12/22 06:36:10;;;;;;;7.93;4.60;;;12.40;99.90;;;;;;4853502;29;20105;-69
2022/12/22 06:38:36;;;;;;;7.88;4.45;;;12.90;99.90;;;;;;4835102;29;20041;-70
2022/12/22 06:41:01;;;;;;;9.55;5.65;;;13.00;99.90;;;;;;4850401;29;20068;-70
2022/12/22 06:43:27;;;;;;;11.90;6.72;;;12.50;99.90;;;;;;4850240;29;20454;-70
2022/12/22 06:45:53;;;;;;;15.80;8.45;;;12.80;99.90;;;;;;4832897;29;20041;-70
2022/12/22 06:48:19;;;;;;;21.63;12.02;;;12.20;99.90;;;;;;4853375;29;20077;-70
2022/12/22 06:50:44;;;;;;;23.02;11.30;;;12.60;99.90;;;;;;4836212;29;20582;-70
2022/12/22 06:53:10;;;;;;;19.98;11.43;;;12.90;99.90;;;;;;4851442;29;20033;-70
2022/12/22 06:55:37;;;;;;;19.58;10.52;;;12.40;99.90;;;;;;4848619;29;20164;-70
2022/12/22 06:58:03;;;;;;;19.73;11.23;;;12.50;99.90;;;;;;4853986;29;20052;-74
2022/12/22 07:00:29;;;;;;;21.17;11.25;;;12.70;99.90;;;;;;4853813;29;20041;-74
2022/12/22 07:02:55;;;;;;;32.55;17.50;;;13.10;99.90;;;;;;4836968;29;20478;-74
2022/12/22 07:05:24;;;;;;;30.75;15.95;;;12.60;99.90;;;;;;4852587;29;20517;-74
2022/12/22 07:08:00;;;;;;;26.08;13.93;;;13.30;99.90;;;;;;4854565;29;20041;-74
2022/12/22 07:13:19;;;;;;;33.83;16.95;;;12.50;99.90;;;;;;4855907;29;20741;-72
2022/12/22 07:15:46;;;;;;;29.67;15.60;;;12.50;99.90;;;;;;4851863;29;20072;-73
2022/12/22 07:18:11;;;;;;;31.63;15.73;;;12.30;99.90;;;;;;4859233;29;20128;-74
2022/12/22 07:20:37;;;;;;;30.92;15.13;;;13.20;99.90;;;;;;4857786;29;20446;-74
2022/12/22 07:23:03;;;;;;;29.92;15.02;;;13.20;99.90;;;;;;4858976;29;20049;-74
2022/12/22 07:25:28;;;;;;;28.17;14.02;;;12.40;99.90;;;;;;4858839;29;20045;-74
2022/12/22 07:27:54;;;;;;;23.40;12.13;;;13.20;99.90;;;;;;4854517;29;20079;-74
2022/12/22 07:30:20;;;;;;;23.05;11.77;;;13.10;99.90;;;;;;4843696;29;20056;-75
2022/12/22 07:32:45;;;;;;;23.08;12.45;;;12.20;99.90;;;;;;4856199;29;20476;-74
2022/12/22 07:35:11;;;;;;;24.15;12.15;;;12.60;99.90;;;;;;4866264;29;20053;-74
2022/12/22 07:37:37;;;;;;;26.65;13.25;;;12.10;99.90;;;;;;4860246;29;20055;-74
2022/12/22 07:40:02;;;;;;;21.38;11.43;;;12.10;99.90;;;;;;4860614;29;20069;-75
2022/12/22 07:42:43;;;;;;;22.20;11.77;;;12.20;99.90;;;;;;4861237;29;20041;-74
2022/12/22 07:45:14;;;;;;;17.90;9.50;;;12.50;99.90;;;;;;4857077;29;20037;-71
2022/12/22 07:47:40;;;;;;;16.40;8.93;;;12.20;99.90;;;;;;4837764;29;20482;-70
2022/12/22 07:50:26;;;;;;;19.27;10.18;;;12.60;99.90;;;;;;4854885;29;20033;-70
2022/12/22 07:52:56;;;;;;;19.45;10.13;;;12.00;99.90;;;;;;4855234;29;20092;-70
2022/12/22 07:55:24;;;;;;;17.45;9.63;;;12.10;99.90;;;;;;4855158;29;20621;-70
2022/12/22 07:57:50;;;;;;;17.65;8.90;;;11.90;99.90;;;;;;4839271;29;20046;-70
2022/12/22 08:00:16;;;;;;;16.40;8.40;;;12.50;99.90;;;;;;4841781;29;20078;-72
2022/12/22 08:02:46;;;;;;;18.25;9.18;;;12.40;99.90;;;;;;4859995;29;20149;-74
2022/12/22 08:05:12;;;;;;;16.02;8.43;;;11.90;99.90;;;;;;4847236;29;20506;-74
2022/12/22 08:07:38;;;;;;;13.85;7.25;;;12.50;99.90;;;;;;4859186;29;20077;-74
2022/12/22 08:10:04;;;;;;;16.65;8.52;;;11.80;99.90;;;;;;4858859;29;20343;-74
2022/12/22 08:12:31;;;;;;;17.52;8.68;;;12.20;99.90;;;;;;4841763;29;20106;-74
2022/12/22 08:14:58;;;;;;;15.32;8.00;;;11.70;99.90;;;;;;4858904;29;20053;-75
2022/12/22 08:17:28;;;;;;;15.65;8.40;;;12.00;99.90;;;;;;4848266;29;20484;-75
2022/12/22 08:19:54;;;;;;;21.05;10.48;;;11.80;99.90;;;;;;4857519;29;20045;-70
2022/12/22 08:22:24;;;;;;;24.70;13.25;;;12.40;99.90;;;;;;4825939;29;20053;-70
2022/12/22 08:24:53;;;;;;;30.85;15.43;;;12.50;99.90;;;;;;4839851;29;20054;-70
2022/12/22 08:27:47;;;;;;;29.98;15.65;;;11.90;99.90;;;;;;4851978;29;20072;-70
2022/12/22 08:30:13;;;;;;;29.75;16.75;;;12.50;99.90;;;;;;4843819;29;20065;-70
2022/12/22 08:32:40;;;;;;;28.30;16.20;;;11.80;99.90;;;;;;4852043;29;20129;-69
2022/12/22 08:35:06;;;;;;;;;;;12.40;99.90;;;;;;4854329;29;20049;-70
2022/12/22 08:37:39;;;;;;;28.00;15.27;;;12.30;99.90;;;;;;4831025;29;19963;-70
2022/12/22 08:40:12;;;;;;;27.30;14.25;;;12.10;99.90;;;;;;4856172;29;20117;-69
2022/12/22 08:42:39;;;;;;;22.35;12.52;;;11.90;99.90;;;;;;4837510;29;20109;-71
2022/12/22 08:45:07;;;;;;;;;;;12.80;99.90;;;;;;4837393;29;20084;-69
2022/12/22 08:47:33;;;;;;;20.10;10.40;;;12.50;99.90;;;;;;4849706;29;19923;-73
2022/12/22 08:49:59;;;;;;;18.05;9.48;;;12.30;99.90;;;;;;4851155;29;20574;-72
2022/12/22 08:52:25;;;;;;;17.98;8.82;;;12.60;99.90;;;;;;4841262;29;20054;-72
2022/12/22 08:54:50;;;;;;;17.27;8.75;;;12.00;99.90;;;;;;4857519;29;20049;-73
2022/12/22 08:57:16;;;;;;;18.38;8.77;;;12.30;99.90;;;;;;4861348;29;20049;-73
2022/12/22 08:59:42;;;;;;;17.63;8.55;;;11.90;99.90;;;;;;4860641;29;20077;-73
2022/12/22 09:02:07;;;;;;;14.85;7.30;;;12.40;99.90;;;;;;4861746;29;20086;-73
2022/12/22 09:04:33;;;;;;;11.93;6.63;;;12.00;99.90;;;;;;4844930;29;20069;-72
2022/12/22 09:07:01;;;;;;;11.75;6.50;;;11.90;99.90;;;;;;4874218;29;20045;-72
2022/12/22 09:09:31;;;;;;;13.60;6.75;;;12.80;99.90;;;;;;4857876;29;20589;-72
2022/12/22 09:11:57;;;;;;;13.60;7.53;;;13.00;99.90;;;;;;4842485;29;20093;-72
2022/12/22 09:14:23;;;;;;;11.10;6.35;;;12.00;99.90;;;;;;4855019;29;20088;-69
2022/12/22 09:16:49;;;;;;;10.45;6.18;;;13.10;99.90;;;;;;4859949;29;20078;-70
2022/12/22 09:19:16;;;;;;;11.48;6.00;;;12.80;99.90;;;;;;4857907;29;20053;-70
2022/12/22 09:21:41;;;;;;;10.30;6.15;;;12.20;99.90;;;;;;4860057;29;20124;-69
2022/12/22 09:24:07;;;;;;;10.57;6.03;;;13.00;99.90;;;;;;4858637;29;20532;-70
2022/12/22 09:26:34;;;;;;;13.57;6.50;;;12.20;99.90;;;;;;4859742;29;20057;-69
2022/12/22 09:29:00;;;;;;;12.23;6.75;;;12.20;99.90;;;;;;4857945;29;20069;-69
2022/12/22 09:31:26;;;;;;;13.00;7.35;;;12.80;99.90;;;;;;4858741;29;20073;-69
2022/12/22 09:33:52;;;;;;;13.85;7.40;;;13.10;99.90;;;;;;4842467;29;20073;-69
2022/12/22 09:36:22;;;;;;;11.52;6.93;;;13.10;99.90;;;;;;4843630;29;20474;-70
2022/12/22 09:38:47;;;;;;;11.70;6.47;;;12.40;99.90;;;;;;4857788;29;20136;-69
2022/12/22 09:41:33;;;;;;;13.13;7.15;;;12.10;99.90;;;;;;4859638;29;20133;-69
2022/12/22 09:44:04;;;;;;;11.02;6.72;;;12.40;99.90;;;;;;4858587;29;20060;-69
2022/12/22 09:46:33;;;;;;;11.48;6.30;;;12.50;99.90;;;;;;4858793;29;20114;-69
2022/12/22 09:48:59;;;;;;;12.73;6.30;;;13.00;99.90;;;;;;4857494;29;20088;-69
2022/12/22 09:51:25;;;;;;;12.18;6.45;;;12.30;99.90;;;;;;4859255;29;20049;-69
2022/12/22 09:53:58;;;;;;;11.30;6.75;;;12.70;99.90;;;;;;4858318;29;20140;-69
2022/12/22 09:56:25;;;;;;;13.27;6.93;;;12.30;99.90;;;;;;4858549;29;20055;-69
2022/12/22 09:58:51;;;;;;;13.00;7.30;;;12.60;99.90;;;;;;4857134;29;20077;-70
2022/12/22 10:01:54;;;;;;;10.93;6.45;;;13.00;99.90;;;;;;4859020;29;20093;-71
2022/12/22 10:04:31;;;;;;;11.07;6.30;;;13.20;99.90;;;;;;4853924;29;20435;-70
2022/12/22 10:07:18;;;;;;;9.90;5.80;;;13.20;99.90;;;;;;4849246;29;20054;-70
2022/12/22 10:09:44;;;;;;;10.82;6.38;;;12.80;99.90;;;;;;4857400;29;20110;-69
2022/12/22 10:12:14;;;;;;;10.52;5.90;;;13.30;99.90;;;;;;4853208;29;20038;-69
2022/12/22 10:14:43;;;;;;;12.23;6.68;;;13.30;99.90;;;;;;4855078;29;20053;-69
2022/12/22 10:17:27;;;;;;;12.45;6.22;;;13.40;99.90;;;;;;4837075;29;20177;-69
2022/12/22 10:20:06;;;;;;;10.43;5.70;;;13.30;99.90;;;;;;4834466;29;20052;-69
2022/12/22 10:22:35;;;;;;;10.45;5.63;;;13.70;99.90;;;;;;4857424;29;20648;-69
2022/12/22 10:25:03;;;;;;;10.05;5.88;;;13.60;99.90;;;;;;4841575;29;20156;-70
2022/12/22 10:27:32;;;;;;;9.18;5.70;;;13.30;99.90;;;;;;4859721;29;20320;-70
2022/12/22 10:30:20;;;;;;;10.68;5.85;;;13.80;99.90;;;;;;4842624;29;20116;-70
2022/12/22 10:33:13;;;;;;;9.55;5.28;;;13.20;99.90;;;;;;4842747;29;20045;-70
2022/12/22 10:35:48;;;;;;;10.65;6.28;;;13.20;99.90;;;;;;4857022;29;20057;-71
2022/12/22 10:38:32;;;;;;;11.65;6.07;;;13.10;99.90;;;;;;4856876;29;20471;-70
2022/12/22 10:41:18;;;;;;;12.68;7.50;;;13.30;99.90;;;;;;4858979;29;20083;-74
2022/12/22 10:43:58;;;;;;;12.35;6.47;;;13.60;99.90;;;;;;4860504;29;20080;-74
2022/12/22 10:46:38;;;;;;;11.77;6.72;;;13.30;99.90;;;;;;4857107;29;20052;-74
2022/12/22 10:49:18;;;;;;;12.35;6.53;;;13.30;99.90;;;;;;4856670;29;20053;-74
2022/12/22 10:51:48;;;;;;;12.00;6.72;;;13.10;99.90;;;;;;4860075;29;20053;-74
2022/12/22 10:54:43;;;;;;;8.48;6.10;;;13.00;99.90;;;;;;4852095;29;20045;-75
2022/12/22 10:57:12;;;;;;;12.00;6.35;;;13.00;99.90;;;;;;4826637;29;20053;-74
2022/12/22 10:59:47;;;;;;;10.70;6.18;;;13.10;99.90;;;;;;4839625;29;20204;-74
2022/12/22 11:02:22;;;;;;;10.65;6.05;;;12.90;99.90;;;;;;4834838;29;20148;-75
2022/12/22 11:04:48;;;;;;;11.52;5.90;;;12.90;99.90;;;;;;4867048;29;20447;-75
2022/12/22 11:07:14;;;;;;;;;;;12.90;99.90;;;;;;4856667;29;20038;-77
2022/12/22 11:09:40;;;;;;;10.10;6.07;;;13.30;99.90;;;;;;4834296;29;20022;-75
2022/12/22 11:12:38;;;;;;;9.20;5.35;;;13.50;99.90;;;;;;4854305;29;20049;-76
2022/12/22 11:15:13;;;;;;;;;;;13.20;99.90;;;;;;4844378;29;20053;-76
2022/12/22 11:17:51;;;;;;;10.93;5.45;;;13.20;99.90;;;;;;4848196;29;19927;-75
2022/12/22 11:20:32;;;;;;;8.18;5.45;;;13.30;99.90;;;;;;4856602;29;20049;-75
2022/12/22 11:23:17;;;;;;;9.90;4.90;;;13.50;99.90;;;;;;4859708;29;20080;-75
2022/12/22 11:25:55;;;;;;;8.80;5.20;;;13.20;99.90;;;;;;4846693;29;20045;-76
2022/12/22 11:28:42;;;;;;;6.40;4.35;;;13.10;99.90;;;;;;4857169;29;20209;-71
2022/12/22 11:31:46;;;;;;;9.35;4.20;;;13.00;99.90;;;;;;4829934;29;20087;-71
2022/12/22 11:34:36;;;;;;;9.40;4.38;;;12.80;99.90;;;;;;4841535;29;20120;-71
2022/12/22 11:37:30;;;;;;;8.18;4.65;;;12.80;99.90;;;;;;4854975;29;20046;-71
2022/12/22 11:40:20;;;;;;;8.55;3.95;;;12.70;99.90;;;;;;4835451;29;20042;-71
2022/12/22 11:43:05;;;;;;;6.88;3.65;;;12.40;99.90;;;;;;4828932;29;20078;-70
2022/12/22 11:46:08;;;;;;;8.15;4.43;;;12.20;99.90;;;;;;4857512;29;20128;-71
2022/12/22 11:48:49;;;;;;;6.70;3.85;;;12.10;99.90;;;;;;4851572;29;20053;-71
2022/12/22 11:51:43;;;;;;;7.45;3.95;;;11.80;99.90;;;;;;4855892;29;20061;-70
2022/12/22 11:54:23;;;;;;;6.68;3.72;;;11.70;99.90;;;;;;4856843;29;20068;-74
2022/12/22 11:57:09;;;;;;;9.82;4.28;;;11.70;99.90;;;;;;4859242;29;20053;-74
2022/12/22 11:59:53;;;;;;;7.78;4.18;;;11.50;99.90;;;;;;4856855;29;20124;-75
2022/12/22 12:02:57;;;;;;;8.98;4.38;;;11.30;99.90;;;;;;4874335;29;20435;-76
2022/12/22 12:05:41;;;;;;;9.05;4.05;;;11.10;99.90;;;;;;4859389;29;20105;-75
2022/12/22 12:08:25;;;;;;;10.00;4.07;;;10.90;99.90;;;;;;4830369;29;20490;-75
2022/12/22 12:11:04;;;;;;;6.95;3.50;;;10.80;99.90;;;;;;4859001;29;20108;-75
2022/12/22 12:13:48;;;;;;;10.60;3.53;;;10.70;99.90;;;;;;4866733;29;20046;-75
2022/12/22 12:16:26;;;;;;;8.60;3.60;;;10.60;99.90;;;;;;4859612;29;20089;-75
2022/12/22 12:19:13;;;;;;;10.95;3.00;;;10.40;99.90;;;;;;4856375;29;20051;-74
2022/12/22 12:21:47;;;;;;;8.00;2.65;;;10.40;99.90;;;;;;4852023;29;20067;-73
2022/12/22 12:24:37;;;;;;;6.38;2.47;;;10.20;99.90;;;;;;4855818;29;20386;-74
2022/12/22 12:27:21;;;;;;;7.72;2.55;;;10.10;99.90;;;;;;4823604;29;20053;-73
2022/12/22 12:29:50;;;;;;;7.05;2.72;;;10.00;99.90;;;;;;4856565;29;20057;-74
2022/12/22 12:32:24;;;;;;;10.48;2.75;;;10.00;99.90;;;;;;4836397;29;20486;-73
2022/12/22 12:35:06;;;;;;;7.18;2.60;;;9.90;99.90;;;;;;4849948;29;20057;-73
2022/12/22 12:37:37;;;;;;;7.30;2.58;;;10.00;99.90;;;;;;4861146;29;20046;-74
2022/12/22 12:40:30;;;;;;;8.75;3.25;;;10.00;99.90;;;;;;4859958;29;20037;-74
2022/12/22 12:42:57;;;;;;;6.47;2.45;;;9.90;99.90;;;;;;4853225;29;20120;-70
2022/12/22 12:45:36;;;;;;;8.60;2.63;;;9.80;99.90;;;;;;4856850;29;20493;-70
2022/12/22 12:48:23;;;;;;;8.30;2.13;;;9.70;99.90;;;;;;4835487;29;20034;-70
2022/12/22 12:50:53;;;;;;;7.25;2.90;;;9.60;99.90;;;;;;4856187;29;20065;-69
2022/12/22 12:53:21;;;;;;;9.43;2.83;;;9.50;99.90;;;;;;4843388;29;20041;-70
2022/12/22 12:55:53;;;;;;;8.02;2.88;;;9.50;99.90;;;;;;4858398;29;20052;-70
2022/12/22 12:58:36;;;;;;;7.03;2.75;;;9.40;99.90;;;;;;4857603;29;20450;-71
2022/12/22 13:01:11;;;;;;;9.10;2.58;;;9.30;99.90;;;;;;4843730;29;20502;-71
2022/12/22 13:03:41;;;;;;;8.20;2.63;;;9.40;99.90;;;;;;4856364;29;20049;-70
2022/12/22 13:06:09;;;;;;;8.70;2.70;;;9.30;99.90;;;;;;4843266;29;20044;-70
2022/12/22 13:08:49;;;;;;;12.60;2.53;;;9.40;99.90;;;;;;4853573;29;20057;-70
2022/12/22 13:11:15;;;;;;;8.93;2.47;;;9.30;99.90;;;;;;4843831;29;20498;-70
2022/12/22 13:13:40;;;;;;;6.03;2.28;;;9.40;99.90;;;;;;4858525;29;20057;-70
2022/12/22 13:16:06;;;;;;;6.80;2.30;;;9.50;99.90;;;;;;4850114;29;20077;-70
2022/12/22 13:18:32;;;;;;;9.75;3.00;;;9.50;99.90;;;;;;4847927;29;20081;-70
2022/12/22 13:21:25;;;;;;;10.10;2.72;;;9.50;99.90;;;;;;4847354;29;20545;-70
2022/12/22 13:23:53;;;;;;;6.50;2.28;;;9.50;99.90;;;;;;4857880;29;20124;-70
2022/12/22 13:26:31;;;;;;;9.30;2.60;;;9.60;99.90;;;;;;4857934;29;20132;-70
2022/12/22 13:29:08;;;;;;;6.47;2.63;;;9.50;99.90;;;;;;4857868;29;20089;-70
2022/12/22 13:31:47;;;;;;;6.00;2.10;;;9.50;99.90;;;;;;4860586;29;20070;-70
2022/12/22 13:34:30;;;;;;;6.25;1.75;;;9.50;99.90;;;;;;4855732;29;20049;-70
2022/12/22 13:37:01;;;;;;;9.82;2.35;;;9.50;99.90;;;;;;4857463;29;20049;-70
2022/12/22 13:39:27;;;;;;;6.88;2.00;;;9.50;99.90;;;;;;4857273;29;20041;-70
2022/12/22 13:41:54;;;;;;;6.47;2.40;;;9.50;99.90;;;;;;4856578;29;20049;-70
2022/12/22 13:44:28;;;;;;;10.65;2.33;;;9.50;99.90;;;;;;4824636;29;20498;-70
2022/12/22 13:47:00;;;;;;;7.47;2.10;;;9.50;99.90;;;;;;4854669;29;20129;-70
2022/12/22 13:49:28;;;;;;;7.35;2.50;;;9.50;99.90;;;;;;4856315;29;20064;-70
2022/12/22 13:51:54;;;;;;;7.07;2.03;;;9.50;99.90;;;;;;4859047;29;20409;-70
2022/12/22 13:54:28;;;;;;;8.95;2.45;;;9.50;99.90;;;;;;4825577;29;20044;-70
2022/12/22 13:56:55;;;;;;;8.52;2.30;;;9.50;99.90;;;;;;4839293;29;20053;-70
2022/12/22 13:59:44;;;;;;;7.25;2.55;;;9.50;99.90;;;;;;4855334;29;20053;-70
2022/12/22 14:02:10;;;;;;;9.10;2.55;;;9.50;99.90;;;;;;4855306;29;20504;-70
2022/12/22 14:04:37;;;;;;;;;;;9.50;99.90;;;;;;4857171;29;20055;-70
2022/12/22 14:07:17;;;;;;;10.30;2.53;;;9.50;99.90;;;;;;4857758;29;19942;-69
2022/12/22 14:09:48;;;;;;;8.30;2.55;;;9.50;99.90;;;;;;4853521;29;20057;-69
2022/12/22 14:12:21;;;;;;;6.90;2.33;;;9.50;99.90;;;;;;4842428;29;20054;-70
2022/12/22 14:14:49;;;;;;;9.38;2.70;;;9.50;99.90;;;;;;4856100;29;20394;-70
2022/12/22 14:17:23;;;;;;;6.90;2.55;;;9.50;99.90;;;;;;4857690;29;20060;-70
2022/12/22 14:19:51;;;;;;;7.32;2.80;;;9.50;99.90;;;;;;4837854;29;20045;-70
2022/12/22 14:22:22;;;;;;;10.20;2.58;;;9.60;99.90;;;;;;4854016;29;20049;-69
2022/12/22 14:24:53;;;;;;;8.57;2.47;;;9.60;99.90;;;;;;4853820;29;20051;-70
2022/12/22 14:27:34;;;;;;;9.20;2.65;;;9.60;99.90;;;;;;4858077;29;20061;-70
2022/12/22 14:30:02;;;;;;;8.75;2.50;;;9.60;99.90;;;;;;4856671;29;20060;-69
2022/12/22 14:32:42;;;;;;;10.68;2.40;;;9.60;99.90;;;;;;4855949;29;20053;-68
2022/12/22 14:35:20;;;;;;;7.25;2.17;;;9.60;99.90;;;;;;4851682;29;20061;-69
2022/12/22 14:37:51;;;;;;;8.02;2.30;;;9.60;99.90;;;;;;4856326;29;20076;-69
2022/12/22 14:40:41;;;;;;;6.32;1.77;;;9.60;99.90;;;;;;4855470;29;20052;-69
2022/12/22 14:43:20;;;;;;;5.20;1.70;;;9.60;99.90;;;;;;4839187;29;20534;-69
2022/12/22 14:45:48;;;;;;;7.85;1.85;;;9.60;99.90;;;;;;4856883;29;20132;-70
2022/12/22 14:48:26;;;;;;;4.20;1.80;;;9.50;99.90;;;;;;4855896;29;20045;-70
2022/12/22 14:50:53;;;;;;;5.93;1.80;;;9.40;99.90;;;;;;4857574;29;20051;-68
2022/12/22 14:53:50;;;;;;;5.38;1.60;;;9.40;99.90;;;;;;4854622;29;20113;-71
2022/12/22 14:56:17;;;;;;;6.00;1.60;;;9.30;99.90;;;;;;4835657;29;20061;-71
2022/12/22 14:58:45;;;;;;;7.65;1.83;;;9.30;99.90;;;;;;4855258;29;20486;-73
2022/12/22 15:01:28;;;;;;;2.97;1.17;;;9.30;99.90;;;;;;4841119;29;20053;-71
2022/12/22 15:04:17;;;;;;;3.85;1.40;;;9.20;99.90;;;;;;4855304;29;20186;-71
2022/12/22 15:06:47;;;;;;;6.10;1.60;;;9.20;99.90;;;;;;4842940;29;20169;-71
2022/12/22 15:09:13;;;;;;;4.65;1.58;;;9.20;99.90;;;;;;4842599;29;20045;-71
2022/12/22 15:11:48;;;;;;;6.22;1.10;;;9.20;99.90;;;;;;4858074;29;20459;-71
2022/12/22 15:14:18;;;;;;;4.95;1.40;;;9.20;99.90;;;;;;4856073;29;20138;-72
2022/12/22 15:16:45;;;;;;;3.95;1.38;;;9.10;99.90;;;;;;4857243;29;20045;-71
2022/12/22 15:19:17;;;;;;;8.63;1.75;;;9.10;99.90;;;;;;4841600;29;20044;-71
2022/12/22 15:21:43;;;;;;;5.78;1.52;;;9.10;99.90;;;;;;4858190;29;20105;-70
2022/12/22 15:24:11;;;;;;;4.28;1.42;;;9.10;99.90;;;;;;4840486;29;20069;-71
2022/12/22 15:26:37;;;;;;;6.07;1.60;;;9.10;99.90;;;;;;4842632;29;20136;-70
2022/12/22 15:29:02;;;;;;;5.70;1.75;;;9.10;99.90;;;;;;4826356;29;20128;-71
2022/12/22 15:31:28;;;;;;;7.22;2.03;;;9.10;99.90;;;;;;4838864;29;20133;-69
2022/12/22 15:34:02;;;;;;;6.38;1.83;;;9.10;99.90;;;;;;4841853;29;20114;-70
2022/12/22 15:36:28;;;;;;;4.68;1.70;;;9.10;99.90;;;;;;4857483;29;20113;-71
2022/12/22 15:38:54;;;;;;;6.57;2.00;;;9.00;99.90;;;;;;4857861;29;20057;-70
2022/12/22 15:41:19;;;;;;;5.25;1.60;;;9.00;99.90;;;;;;4857360;29;20494;-70
2022/12/22 15:43:45;;;;;;;5.20;1.83;;;9.00;99.90;;;;;;4856735;29;20049;-70
2022/12/22 15:46:15;;;;;;;6.35;1.83;;;8.90;99.90;;;;;;4854981;29;20046;-69
2022/12/22 15:48:42;;;;;;;3.13;1.50;;;8.80;99.90;;;;;;4856779;29;20128;-68
2022/12/22 15:51:20;;;;;;;3.75;1.40;;;8.90;99.90;;;;;;4852659;29;20045;-70
2022/12/22 15:53:46;;;;;;;6.47;2.33;;;8.80;99.90;;;;;;4829430;29;20140;-71
2022/12/22 15:56:17;;;;;;;5.25;2.20;;;8.90;99.90;;;;;;4856907;29;20477;-71
2022/12/22 15:58:43;;;;;;;6.80;2.33;;;8.90;99.90;;;;;;4856520;29;20081;-71
2022/12/22 16:01:12;;;;;;;7.90;3.00;;;8.90;99.90;;;;;;4858082;29;20228;-71
2022/12/22 16:03:38;;;;;;;7.97;2.75;;;8.90;99.90;;;;;;4851877;29;20502;-70
2022/12/22 16:06:05;;;;;;;8.07;2.72;;;8.90;99.90;;;;;;4853218;29;20053;-70
2022/12/22 16:08:36;;;;;;;4.85;2.65;;;8.90;99.90;;;;;;4854193;29;20371;-71
2022/12/22 16:11:06;;;;;;;6.15;2.47;;;8.90;99.90;;;;;;4838663;29;20136;-70
2022/12/22 16:13:32;;;;;;;6.00;2.25;;;8.80;99.90;;;;;;4849816;29;20057;-71
2022/12/22 16:15:57;;;;;;;6.70;3.00;;;8.80;99.90;;;;;;4850993;29;20045;-71
2022/12/22 16:18:24;;;;;;;4.72;2.70;;;8.80;99.90;;;;;;4853206;29;20049;-70
2022/12/22 16:20:50;;;;;;;6.57;2.80;;;8.80;99.90;;;;;;4852856;29;20053;-70
2022/12/22 16:23:24;;;;;;;6.10;2.88;;;8.80;99.90;;;;;;4845630;29;20108;-71
2022/12/22 16:25:51;;;;;;;7.32;2.90;;;8.80;99.90;;;;;;4835467;29;20152;-71
2022/12/22 16:28:23;;;;;;;4.72;2.83;;;8.70;99.90;;;;;;4853331;29;20057;-71
2022/12/22 16:30:49;;;;;;;4.88;2.30;;;8.70;99.90;;;;;;4849392;29;20165;-70
2022/12/22 16:33:15;;;;;;;;;;;8.70;99.90;;;;;;4851610;29;20048;-71
2022/12/22 16:35:41;;;;;;;5.97;2.47;;;8.60;99.90;;;;;;4850295;29;19927;-71
2022/12/22 16:38:08;;;;;;;3.80;2.20;;;8.60;99.90;;;;;;4828173;29;20050;-72
2022/12/22 16:40:44;;;;;;;3.92;2.33;;;8.60;99.90;;;;;;4851065;29;20045;-72